createdAt,value
2019-03-22T00:00:35.546Z,89.52
2019-03-22T00:01:35.483Z,89.52
2019-03-22T00:02:35.700Z,89.52
2019-03-22T00:03:35.680Z,89.83
2019-03-22T00:04:35.473Z,89.83
2019-03-22T00:05:35.471Z,89.83
2019-03-22T00:06:35.504Z,89.83
2019-03-22T00:07:35.434Z,89.87
2019-03-22T00:08:35.446Z,89.83
2019-03-22T00:09:35.395Z,89.93
2019-03-22T00:10:35.508Z,89.11
2019-03-22T00:12:36.607Z,88.49
2019-03-22T00:13:35.356Z,88.18
2019-03-22T00:14:36.942Z,87.82
2019-03-22T00:15:35.362Z,87.98
2019-03-22T00:16:35.338Z,88.29
2019-03-22T00:17:35.358Z,88.49
2019-03-22T00:18:35.297Z,87.67
2019-03-22T00:19:35.291Z,87.67
2019-03-22T00:20:35.303Z,87.46
2019-03-22T00:21:35.277Z,87.37
2019-03-22T00:22:35.284Z,86.75
2019-03-22T00:23:35.250Z,86.85
2019-03-22T00:24:35.234Z,86.03
2019-03-22T00:25:35.446Z,86.65
2019-03-22T00:26:35.272Z,86.85
2019-03-22T00:28:36.406Z,86.85
2019-03-22T00:29:35.398Z,86.81
2019-03-22T00:30:35.479Z,86.75
2019-03-22T00:31:35.302Z,86.85
2019-03-22T00:32:35.156Z,87.02
2019-03-22T00:34:36.229Z,87.02
2019-03-22T00:35:35.188Z,87.37
2019-03-22T00:36:37.327Z,87.12
2019-03-22T00:37:37.260Z,86.81
2019-03-22T00:38:35.134Z,87.02
2019-03-22T00:39:35.172Z,86.71
2019-03-22T00:40:35.056Z,86.91
2019-03-22T00:41:35.240Z,87.43
2019-03-22T00:42:37.160Z,87.73
2019-03-22T00:43:35.121Z,87.43
2019-03-22T00:44:35.072Z,86.81
2019-03-22T00:46:36.734Z,87.43
2019-03-22T00:47:35.067Z,86.81
2019-03-22T00:48:34.978Z,86.81
2019-03-22T00:49:34.998Z,87.02
2019-03-22T00:50:34.970Z,87.18
2019-03-22T00:51:37.118Z,87.22
2019-03-22T00:52:35.002Z,87.32
2019-03-22T00:53:37.035Z,87.08
2019-03-22T00:54:34.917Z,86.87
2019-03-22T00:55:35.000Z,86.98
2019-03-22T00:56:35.107Z,86.87
2019-03-22T00:57:38.998Z,86.87
2019-03-22T00:58:38.986Z,86.87
2019-03-22T01:00:36.052Z,86.66
2019-03-22T01:01:34.866Z,86.77
2019-03-22T01:02:34.841Z,87.28
2019-03-22T01:03:34.824Z,86.98
2019-03-22T01:04:34.883Z,87.08
2019-03-22T01:05:34.859Z,87.08
2019-03-22T01:06:34.900Z,86.77
2019-03-22T01:07:36.860Z,86.66
2019-03-22T01:08:36.841Z,86.66
2019-03-22T01:09:34.816Z,86.66
2019-03-22T01:10:34.793Z,86.66
2019-03-22T01:11:36.436Z,86.77
2019-03-22T01:12:34.722Z,86.87
2019-03-22T01:13:34.769Z,86.87
2019-03-22T01:14:34.724Z,86.98
2019-03-22T01:15:34.756Z,86.98
2019-03-22T01:16:34.869Z,87.28
2019-03-22T01:18:35.832Z,85.95
2019-03-22T01:19:34.748Z,85.85
2019-03-22T01:20:34.695Z,85.95
2019-03-22T01:21:34.687Z,85.85
2019-03-22T01:25:45.645Z,86.11
2019-03-22T01:29:05.846Z,85.95
2019-03-22T01:30:05.823Z,85.95
2019-03-22T01:32:07.042Z,85.80
2019-03-22T01:47:48.316Z,86.05
2019-03-22T01:48:47.252Z,86.05
2019-03-22T01:49:47.227Z,86.05
2019-03-22T01:50:47.194Z,86.15
2019-03-22T01:51:47.161Z,86.25
2019-03-22T01:52:47.163Z,85.85
2019-03-22T01:54:46.950Z,85.85
2019-03-22T01:55:46.934Z,86.01
2019-03-22T01:56:46.946Z,86.36
2019-03-22T01:57:53.153Z,86.05
2019-03-22T01:58:47.933Z,85.95
2019-03-22T01:59:55.816Z,86.05
2019-03-22T02:00:46.892Z,85.95
2019-03-22T02:01:46.868Z,85.95
2019-03-22T02:02:46.881Z,86.05
2019-03-22T02:03:46.852Z,85.85
2019-03-22T02:04:46.844Z,86.05
2019-03-22T02:05:46.845Z,85.95
2019-03-22T02:06:46.815Z,85.91
2019-03-22T02:07:46.810Z,86.05
2019-03-22T02:08:46.882Z,85.95
2019-03-22T02:09:46.822Z,86.15
2019-03-22T02:10:46.781Z,86.15
2019-03-22T02:11:46.777Z,86.05
2019-03-22T02:12:46.760Z,86.05
2019-03-22T02:13:46.813Z,86.05
2019-03-22T02:14:46.745Z,85.85
2019-03-22T02:15:46.730Z,85.95
2019-03-22T02:16:46.707Z,85.95
2019-03-22T02:17:46.703Z,85.91
2019-03-22T02:18:46.740Z,85.91
2019-03-22T02:19:46.690Z,85.74
2019-03-22T02:20:46.665Z,86.25
2019-03-22T02:21:46.657Z,85.80
2019-03-22T02:22:46.647Z,86.05
2019-03-22T02:23:46.652Z,86.01
2019-03-22T02:24:46.620Z,86.11
2019-03-22T02:25:46.611Z,85.91
2019-03-22T02:26:46.606Z,85.80
2019-03-22T02:27:46.602Z,86.11
2019-03-22T02:28:46.606Z,86.22
2019-03-22T02:29:46.568Z,86.11
2019-03-22T02:30:46.557Z,85.80
2019-03-22T02:31:46.550Z,86.01
2019-03-22T02:32:46.544Z,85.71
2019-03-22T02:33:46.557Z,86.22
2019-03-22T02:34:46.528Z,85.80
2019-03-22T02:35:46.501Z,85.91
2019-03-22T02:36:46.526Z,85.80
2019-03-22T02:37:46.488Z,85.91
2019-03-22T02:38:46.495Z,85.91
2019-03-22T02:39:46.610Z,86.01
2019-03-22T02:40:46.445Z,86.11
2019-03-22T02:41:46.439Z,85.91
2019-03-22T02:42:46.483Z,85.60
2019-03-22T02:43:46.491Z,85.91
2019-03-22T02:44:46.474Z,85.80
2019-03-22T02:45:46.396Z,86.11
2019-03-22T02:46:46.401Z,86.11
2019-03-22T02:47:46.387Z,86.01
2019-03-22T02:48:46.418Z,86.01
2019-03-22T02:49:46.358Z,85.91
2019-03-22T02:50:46.341Z,86.11
2019-03-22T02:51:46.365Z,85.71
2019-03-22T02:52:46.374Z,85.71
2019-03-22T02:53:46.315Z,86.01
2019-03-22T02:54:46.301Z,85.80
2019-03-22T02:55:46.322Z,85.80
2019-03-22T02:56:46.310Z,86.01
2019-03-22T02:57:46.277Z,85.60
2019-03-22T02:58:46.350Z,85.71
2019-03-22T02:59:46.276Z,85.60
2019-03-22T03:00:46.229Z,85.91
2019-03-22T03:01:46.230Z,86.01
2019-03-22T03:02:46.215Z,86.01
2019-03-22T03:03:46.219Z,85.60
2019-03-22T03:04:46.188Z,85.71
2019-03-22T03:05:46.183Z,85.80
2019-03-22T03:06:46.173Z,86.11
2019-03-22T03:07:46.251Z,85.71
2019-03-22T03:08:46.176Z,85.71
2019-03-22T03:09:46.143Z,85.71
2019-03-22T03:10:46.126Z,86.01
2019-03-22T03:11:46.114Z,85.80
2019-03-22T03:12:46.126Z,85.91
2019-03-22T03:13:46.126Z,85.60
2019-03-22T03:14:46.080Z,86.11
2019-03-22T03:15:46.077Z,85.50
2019-03-22T03:16:46.136Z,85.60
2019-03-22T03:17:46.062Z,86.01
2019-03-22T03:18:46.040Z,85.60
2019-03-22T03:19:46.058Z,85.60
2019-03-22T03:20:46.022Z,85.87
2019-03-22T03:21:46.006Z,85.46
2019-03-22T03:22:45.999Z,86.01
2019-03-22T03:23:45.979Z,85.39
2019-03-22T03:24:45.987Z,85.30
2019-03-22T03:25:45.960Z,85.39
2019-03-22T03:26:45.951Z,85.91
2019-03-22T03:27:45.944Z,85.91
2019-03-22T03:28:45.928Z,85.09
2019-03-22T03:29:45.932Z,85.60
2019-03-22T03:30:45.924Z,85.46
2019-03-22T03:31:45.892Z,85.25
2019-03-22T03:32:45.892Z,85.60
2019-03-22T03:33:45.902Z,85.80
2019-03-22T03:34:45.894Z,85.80
2019-03-22T03:35:45.865Z,85.71
2019-03-22T03:36:45.847Z,85.30
2019-03-22T03:37:45.831Z,85.39
2019-03-22T03:38:45.838Z,85.91
2019-03-22T03:39:45.837Z,85.80
2019-03-22T03:40:45.798Z,86.11
2019-03-22T03:41:45.815Z,85.60
2019-03-22T03:42:45.804Z,85.80
2019-03-22T03:43:45.768Z,85.80
2019-03-22T03:44:45.790Z,86.05
2019-03-22T03:45:45.742Z,86.11
2019-03-22T03:46:45.728Z,85.91
2019-03-22T03:47:45.718Z,86.01
2019-03-22T03:48:45.710Z,85.91
2019-03-22T03:49:45.716Z,86.11
2019-03-22T03:50:45.691Z,85.91
2019-03-22T03:51:45.674Z,86.11
2019-03-22T03:52:45.663Z,86.01
2019-03-22T03:53:45.661Z,85.91
2019-03-22T03:54:45.682Z,85.91
2019-03-22T03:55:45.660Z,86.22
2019-03-22T03:56:45.642Z,86.11
2019-03-22T03:57:45.609Z,86.01
2019-03-22T03:58:52.306Z,86.01
2019-03-22T03:59:46.633Z,86.01
2019-03-22T04:00:45.582Z,85.71
2019-03-22T04:01:45.573Z,85.80
2019-03-22T04:02:45.590Z,85.91
2019-03-22T04:03:45.549Z,85.91
2019-03-22T04:04:45.581Z,86.01
2019-03-22T04:05:45.524Z,86.01
2019-03-22T04:06:45.525Z,86.01
2019-03-22T04:07:45.513Z,86.01
2019-03-22T04:08:45.531Z,86.22
2019-03-22T04:09:45.497Z,87.14
2019-03-22T04:10:45.506Z,87.14
2019-03-22T04:11:45.460Z,87.04
2019-03-22T04:12:45.450Z,87.14
2019-03-22T04:13:45.456Z,86.63
2019-03-22T04:14:46.344Z,86.73
2019-03-22T04:15:45.523Z,86.22
2019-03-22T04:16:45.434Z,86.52
2019-03-22T04:17:45.393Z,86.32
2019-03-22T04:18:45.388Z,86.32
2019-03-22T04:19:45.434Z,86.52
2019-03-22T04:20:45.367Z,87.14
2019-03-22T04:21:45.372Z,87.14
2019-03-22T04:22:45.377Z,87.14
2019-03-22T04:23:45.334Z,86.83
2019-03-22T04:24:45.352Z,86.63
2019-03-22T04:25:45.315Z,86.63
2019-03-22T04:26:45.307Z,86.73
2019-03-22T04:27:45.285Z,86.73
2019-03-22T04:28:45.292Z,86.83
2019-03-22T04:29:45.362Z,87.24
2019-03-22T04:30:45.272Z,87.14
2019-03-22T04:31:45.283Z,86.73
2019-03-22T04:32:45.234Z,87.14
2019-03-22T04:33:45.231Z,87.14
2019-03-22T04:34:45.262Z,86.93
2019-03-22T04:35:45.221Z,86.83
2019-03-22T04:36:45.185Z,86.52
2019-03-22T04:37:45.181Z,86.63
2019-03-22T04:38:45.178Z,86.32
2019-03-22T04:39:45.206Z,86.32
2019-03-22T04:40:45.188Z,86.63
2019-03-22T04:41:45.137Z,86.52
2019-03-22T04:42:45.131Z,86.52
2019-03-22T04:43:45.130Z,86.63
2019-03-22T04:44:45.099Z,86.52
2019-03-22T04:45:45.119Z,86.73
2019-03-22T04:46:45.081Z,87.14
2019-03-22T04:47:46.127Z,87.24
2019-03-22T04:48:45.069Z,87.04
2019-03-22T04:49:45.063Z,86.73
2019-03-22T04:50:45.065Z,87.14
2019-03-22T04:51:45.059Z,86.63
2019-03-22T04:52:45.017Z,86.52
2019-03-22T04:53:45.037Z,86.42
2019-03-22T04:54:44.993Z,86.52
2019-03-22T04:55:45.007Z,87.34
2019-03-22T04:56:44.973Z,87.04
2019-03-22T04:57:44.955Z,87.14
2019-03-22T04:58:46.798Z,87.10
2019-03-22T04:59:44.940Z,86.28
2019-03-22T05:00:44.947Z,86.28
2019-03-22T05:01:44.941Z,85.97
2019-03-22T05:02:44.918Z,86.22
2019-03-22T05:03:44.899Z,85.97
2019-03-22T05:04:44.885Z,86.01
2019-03-22T05:05:44.894Z,85.77
2019-03-22T05:06:44.875Z,86.07
2019-03-22T05:07:53.882Z,85.77
2019-03-22T05:08:44.853Z,85.87
2019-03-22T05:09:44.831Z,86.01
2019-03-22T05:10:44.837Z,85.91
2019-03-22T05:11:44.809Z,86.01
2019-03-22T05:12:44.830Z,86.01
2019-03-22T05:13:44.787Z,86.22
2019-03-22T05:14:44.774Z,85.97
2019-03-22T05:15:44.787Z,86.01
2019-03-22T05:16:44.775Z,85.87
2019-03-22T05:17:44.817Z,85.97
2019-03-22T05:18:44.735Z,85.87
2019-03-22T05:19:44.721Z,85.77
2019-03-22T05:20:44.765Z,85.66
2019-03-22T05:21:44.696Z,85.56
2019-03-22T05:22:44.699Z,85.77
2019-03-22T05:23:44.680Z,85.87
2019-03-22T05:24:44.683Z,85.77
2019-03-22T05:25:44.663Z,85.87
2019-03-22T05:26:44.680Z,85.36
2019-03-22T05:27:44.643Z,85.56
2019-03-22T05:28:44.622Z,85.25
2019-03-22T05:29:44.625Z,85.77
2019-03-22T05:30:44.607Z,85.77
2019-03-22T05:31:44.642Z,85.77
2019-03-22T05:32:44.579Z,85.77
2019-03-22T05:33:44.625Z,85.56
2019-03-22T05:34:44.559Z,85.56
2019-03-22T05:35:44.556Z,85.56
2019-03-22T05:36:44.588Z,85.46
2019-03-22T05:37:44.523Z,85.56
2019-03-22T05:38:44.514Z,85.56
2019-03-22T05:39:44.511Z,85.87
2019-03-22T05:40:44.504Z,85.25
2019-03-22T05:41:44.560Z,85.46
2019-03-22T05:42:44.474Z,85.46
2019-03-22T05:43:44.463Z,85.46
2019-03-22T05:44:44.462Z,85.56
2019-03-22T05:45:44.453Z,85.56
2019-03-22T05:46:44.443Z,85.63
2019-03-22T05:47:44.421Z,85.46
2019-03-22T05:48:44.408Z,85.66
2019-03-22T05:49:44.398Z,85.77
2019-03-22T05:50:44.395Z,85.66
2019-03-22T05:51:44.408Z,85.77
2019-03-22T05:52:44.368Z,85.66
2019-03-22T05:53:44.357Z,85.56
2019-03-22T05:54:44.349Z,85.25
2019-03-22T05:55:44.335Z,85.87
2019-03-22T05:56:44.347Z,85.77
2019-03-22T05:57:44.309Z,85.71
2019-03-22T05:58:44.313Z,85.80
2019-03-22T05:59:44.294Z,85.97
2019-03-22T06:00:44.272Z,85.66
2019-03-22T06:01:45.449Z,85.66
2019-03-22T06:02:44.268Z,85.56
2019-03-22T06:03:44.245Z,85.66
2019-03-22T06:04:44.232Z,85.36
2019-03-22T06:05:46.354Z,85.66
2019-03-22T06:06:44.236Z,85.46
2019-03-22T06:07:44.234Z,85.66
2019-03-22T06:08:44.216Z,85.56
2019-03-22T06:09:44.184Z,85.56
2019-03-22T06:10:44.168Z,85.56
2019-03-22T06:11:44.207Z,85.36
2019-03-22T06:12:44.181Z,85.25
2019-03-22T06:13:44.524Z,85.22
2019-03-22T06:14:44.166Z,85.42
2019-03-22T06:15:44.120Z,85.42
2019-03-22T06:16:44.105Z,85.36
2019-03-22T06:17:51.742Z,85.36
2019-03-22T06:18:45.090Z,85.36
2019-03-22T06:19:44.089Z,85.11
2019-03-22T06:20:44.124Z,85.22
2019-03-22T06:21:44.094Z,85.22
2019-03-22T06:22:44.079Z,85.22
2019-03-22T06:23:44.027Z,85.01
2019-03-22T06:24:44.031Z,85.01
2019-03-22T06:25:44.031Z,84.80
2019-03-22T06:26:44.946Z,84.50
2019-03-22T06:27:44.012Z,84.70
2019-03-22T06:28:43.978Z,83.98
2019-03-22T06:29:53.692Z,84.80
2019-03-22T06:30:44.968Z,84.39
2019-03-22T06:32:45.224Z,84.77
2019-03-22T06:33:44.025Z,84.36
2019-03-22T06:34:43.906Z,84.50
2019-03-22T06:35:43.905Z,84.60
2019-03-22T06:36:43.887Z,84.60
2019-03-22T06:38:45.030Z,84.46
2019-03-22T06:39:44.089Z,84.29
2019-03-22T06:40:44.049Z,84.19
2019-03-22T06:41:44.008Z,84.25
2019-03-22T06:42:44.048Z,84.29
2019-03-22T06:43:44.012Z,84.36
2019-03-22T06:44:43.863Z,84.39
2019-03-22T06:45:43.801Z,84.70
2019-03-22T06:46:43.781Z,84.91
2019-03-22T06:47:43.792Z,84.80
2019-03-22T06:48:43.780Z,84.29
2019-03-22T06:49:43.770Z,84.80
2019-03-22T06:50:43.774Z,83.98
2019-03-22T06:51:43.727Z,84.46
2019-03-22T06:52:43.747Z,84.29
2019-03-22T06:53:43.713Z,84.29
2019-03-22T06:54:43.716Z,84.29
2019-03-22T06:55:43.688Z,84.50
2019-03-22T06:56:43.674Z,84.29
2019-03-22T06:57:43.690Z,84.15
2019-03-22T06:58:43.652Z,84.25
2019-03-22T06:59:43.654Z,84.46
2019-03-22T07:00:43.648Z,84.36
2019-03-22T07:01:43.633Z,84.25
2019-03-22T07:02:43.657Z,84.36
2019-03-22T07:03:43.605Z,84.56
2019-03-22T07:04:43.587Z,84.05
2019-03-22T07:05:43.582Z,83.95
2019-03-22T07:06:43.562Z,83.64
2019-03-22T07:07:43.592Z,83.44
2019-03-22T07:08:43.593Z,83.54
2019-03-22T07:09:43.524Z,83.84
2019-03-22T07:10:43.540Z,83.74
2019-03-22T07:11:43.517Z,83.64
2019-03-22T07:12:43.495Z,83.74
2019-03-22T07:13:43.506Z,83.95
2019-03-22T07:14:43.468Z,83.64
2019-03-22T07:15:43.462Z,83.64
2019-03-22T07:16:43.453Z,83.23
2019-03-22T07:17:43.450Z,83.74
2019-03-22T07:18:43.459Z,83.74
2019-03-22T07:19:43.416Z,84.15
2019-03-22T07:20:43.402Z,84.15
2019-03-22T07:21:43.406Z,84.19
2019-03-22T07:22:43.382Z,84.25
2019-03-22T07:23:43.392Z,84.39
2019-03-22T07:24:43.359Z,84.19
2019-03-22T07:25:43.360Z,84.77
2019-03-22T07:26:43.353Z,84.36
2019-03-22T07:27:43.324Z,84.66
2019-03-22T07:28:43.346Z,84.22
2019-03-22T07:29:43.320Z,83.70
2019-03-22T07:30:43.302Z,83.39
2019-03-22T07:31:43.304Z,83.09
2019-03-22T07:32:43.276Z,83.39
2019-03-22T07:33:43.292Z,83.60
2019-03-22T07:34:43.282Z,83.74
2019-03-22T07:35:43.240Z,83.81
2019-03-22T07:36:43.285Z,83.44
2019-03-22T07:37:43.216Z,83.13
2019-03-22T07:38:43.242Z,83.64
2019-03-22T07:39:43.202Z,83.60
2019-03-22T07:40:43.198Z,83.60
2019-03-22T07:41:43.177Z,83.29
2019-03-22T07:42:43.163Z,83.39
2019-03-22T07:43:43.183Z,82.78
2019-03-22T07:44:43.142Z,83.50
2019-03-22T07:45:43.142Z,82.98
2019-03-22T07:46:43.120Z,83.39
2019-03-22T07:47:43.126Z,83.29
2019-03-22T07:48:43.125Z,83.19
2019-03-22T07:49:43.093Z,83.39
2019-03-22T07:50:43.080Z,82.78
2019-03-22T07:51:43.074Z,83.19
2019-03-22T07:52:43.090Z,83.29
2019-03-22T07:53:43.048Z,82.82
2019-03-22T07:54:43.068Z,82.92
2019-03-22T07:55:43.040Z,83.84
2019-03-22T07:56:43.024Z,83.44
2019-03-22T07:57:43.014Z,83.64
2019-03-22T07:58:42.990Z,83.50
2019-03-22T07:59:42.997Z,83.09
2019-03-22T08:00:42.968Z,83.09
2019-03-22T08:01:42.961Z,82.98
2019-03-22T08:02:42.960Z,83.23
2019-03-22T08:03:42.948Z,83.33
2019-03-22T08:04:42.962Z,83.44
2019-03-22T08:05:50.710Z,83.64
2019-03-22T08:06:43.910Z,83.64
2019-03-22T08:07:42.890Z,83.74
2019-03-22T08:08:42.928Z,84.05
2019-03-22T08:09:42.921Z,84.05
2019-03-22T08:10:42.862Z,83.74
2019-03-22T08:11:42.866Z,84.25
2019-03-22T08:12:42.848Z,84.09
2019-03-22T08:13:42.840Z,83.74
2019-03-22T08:14:42.840Z,83.78
2019-03-22T08:15:42.834Z,84.05
2019-03-22T08:16:42.827Z,84.29
2019-03-22T08:17:42.882Z,84.46
2019-03-22T08:18:42.816Z,84.25
2019-03-22T08:19:42.796Z,84.29
2019-03-22T08:20:42.772Z,84.15
2019-03-22T08:21:42.744Z,83.70
2019-03-22T08:22:42.730Z,83.44
2019-03-22T08:23:42.725Z,83.09
2019-03-22T08:24:42.802Z,83.50
2019-03-22T08:25:43.618Z,83.09
2019-03-22T08:26:42.741Z,83.15
2019-03-22T08:27:42.679Z,82.89
2019-03-22T08:28:42.668Z,82.17
2019-03-22T08:29:42.733Z,82.48
2019-03-22T08:30:43.485Z,82.57
2019-03-22T08:31:42.643Z,82.48
2019-03-22T08:32:42.646Z,82.78
2019-03-22T08:33:42.659Z,82.48
2019-03-22T08:34:42.670Z,82.57
2019-03-22T08:35:42.614Z,82.37
2019-03-22T08:36:42.607Z,82.68
2019-03-22T08:37:52.068Z,82.68
2019-03-22T08:38:43.556Z,82.57
2019-03-22T08:39:42.602Z,82.68
2019-03-22T08:40:42.542Z,82.57
2019-03-22T08:41:42.572Z,82.48
2019-03-22T08:42:42.515Z,82.57
2019-03-22T08:43:42.540Z,82.57
2019-03-22T08:44:42.490Z,82.57
2019-03-22T08:45:42.547Z,82.64
2019-03-22T08:46:44.889Z,82.03
2019-03-22T08:47:42.463Z,82.13
2019-03-22T08:48:42.458Z,82.23
2019-03-22T08:49:42.593Z,82.03
2019-03-22T08:50:42.454Z,82.03
2019-03-22T08:51:42.424Z,82.13
2019-03-22T08:52:42.438Z,82.03
2019-03-22T08:53:54.675Z,81.93
2019-03-22T08:54:43.388Z,81.72
2019-03-22T08:55:42.429Z,81.93
2019-03-22T08:56:42.368Z,81.93
2019-03-22T08:57:42.346Z,81.72
2019-03-22T08:58:42.364Z,81.68
2019-03-22T08:59:42.343Z,81.62
2019-03-22T09:00:56.283Z,81.68
2019-03-22T09:01:43.307Z,81.68
2019-03-22T09:02:42.413Z,81.51
2019-03-22T09:03:42.321Z,82.13
2019-03-22T09:04:42.298Z,81.79
2019-03-22T09:05:42.276Z,81.07
2019-03-22T09:06:42.263Z,80.66
2019-03-22T09:07:42.306Z,80.66
2019-03-22T09:08:42.235Z,81.01
2019-03-22T09:09:42.254Z,81.07
2019-03-22T09:10:42.241Z,80.90
2019-03-22T09:11:42.214Z,80.69
2019-03-22T09:12:42.230Z,81.21
2019-03-22T09:13:42.178Z,81.79
2019-03-22T09:14:42.162Z,80.69
2019-03-22T09:15:42.285Z,80.87
2019-03-22T09:16:42.144Z,80.66
2019-03-22T09:17:42.212Z,80.76
2019-03-22T09:18:42.129Z,80.46
2019-03-22T09:19:42.106Z,80.35
2019-03-22T09:20:42.150Z,79.84
2019-03-22T09:21:42.090Z,80.11
2019-03-22T09:22:42.107Z,80.01
2019-03-22T09:23:42.130Z,80.05
2019-03-22T09:24:42.049Z,80.05
2019-03-22T09:25:42.109Z,79.94
2019-03-22T09:26:47.590Z,79.84
2019-03-22T09:27:43.032Z,80.15
2019-03-22T09:28:42.016Z,80.05
2019-03-22T09:29:42.003Z,80.49
2019-03-22T09:30:42.112Z,80.15
2019-03-22T09:31:41.984Z,80.60
2019-03-22T09:32:41.990Z,80.49
2019-03-22T09:33:41.956Z,80.39
2019-03-22T09:34:41.955Z,80.60
2019-03-22T09:35:41.990Z,80.87
2019-03-22T09:36:41.968Z,80.46
2019-03-22T09:37:41.950Z,80.39
2019-03-22T09:38:41.932Z,80.35
2019-03-22T09:39:41.901Z,80.25
2019-03-22T09:40:41.936Z,80.46
2019-03-22T09:41:41.940Z,80.05
2019-03-22T09:42:41.856Z,80.35
2019-03-22T09:43:41.894Z,80.46
2019-03-22T09:44:44.262Z,80.15
2019-03-22T09:45:41.843Z,80.46
2019-03-22T09:46:41.864Z,80.56
2019-03-22T09:47:41.820Z,80.15
2019-03-22T09:48:41.799Z,79.80
2019-03-22T09:49:41.801Z,79.80
2019-03-22T09:50:41.778Z,79.80
2019-03-22T09:51:41.779Z,79.60
2019-03-22T09:52:41.757Z,78.99
2019-03-22T09:53:41.727Z,79.05
2019-03-22T09:54:41.763Z,79.05
2019-03-22T09:55:41.716Z,79.29
2019-03-22T09:56:46.938Z,79.25
2019-03-22T09:57:42.689Z,79.50
2019-03-22T09:58:41.675Z,79.39
2019-03-22T09:59:41.720Z,79.29
2019-03-22T10:00:41.758Z,78.78
2019-03-22T10:01:41.701Z,79.84
2019-03-22T10:02:41.645Z,80.25
2019-03-22T10:03:42.717Z,79.94
2019-03-22T10:04:41.612Z,79.84
2019-03-22T10:05:41.641Z,80.25
2019-03-22T10:06:41.615Z,79.84
2019-03-22T10:07:41.587Z,80.01
2019-03-22T10:08:41.569Z,79.84
2019-03-22T10:09:41.563Z,79.13
2019-03-22T10:10:41.589Z,78.99
2019-03-22T10:11:41.570Z,79.29
2019-03-22T10:12:41.533Z,79.29
2019-03-22T10:13:41.535Z,79.39
2019-03-22T10:14:41.527Z,79.29
2019-03-22T10:15:41.491Z,79.50
2019-03-22T10:16:41.539Z,79.60
2019-03-22T10:17:41.473Z,79.50
2019-03-22T10:18:41.461Z,79.50
2019-03-22T10:19:42.256Z,79.50
2019-03-22T10:20:41.442Z,78.64
2019-03-22T10:21:41.505Z,78.34
2019-03-22T10:22:41.422Z,78.44
2019-03-22T10:23:41.402Z,78.64
2019-03-22T10:24:41.406Z,78.23
2019-03-22T10:25:41.395Z,78.95
2019-03-22T10:26:41.415Z,78.20
2019-03-22T10:27:41.401Z,78.61
2019-03-22T10:28:41.356Z,77.69
2019-03-22T10:29:41.332Z,78.00
2019-03-22T10:30:41.359Z,78.34
2019-03-22T10:31:41.353Z,78.34
2019-03-22T10:32:41.484Z,78.20
2019-03-22T10:33:41.302Z,78.23
2019-03-22T10:34:41.427Z,78.95
2019-03-22T10:35:41.276Z,78.75
2019-03-22T10:36:41.322Z,78.30
2019-03-22T10:37:49.582Z,78.20
2019-03-22T10:38:41.264Z,78.20
2019-03-22T10:39:41.228Z,77.89
2019-03-22T10:40:41.216Z,77.79
2019-03-22T10:41:41.294Z,77.72
2019-03-22T10:42:41.225Z,78.41
2019-03-22T10:43:41.198Z,78.34
2019-03-22T10:44:41.210Z,78.23
2019-03-22T10:45:41.201Z,78.23
2019-03-22T10:46:41.151Z,78.20
2019-03-22T10:47:41.159Z,78.20
2019-03-22T10:48:41.157Z,78.30
2019-03-22T10:49:42.092Z,77.69
2019-03-22T10:50:41.120Z,77.59
2019-03-22T10:51:41.177Z,78.00
2019-03-22T10:52:41.110Z,77.79
2019-03-22T10:53:41.193Z,77.89
2019-03-22T10:54:41.093Z,78.00
2019-03-22T10:55:41.059Z,77.62
2019-03-22T10:56:41.043Z,77.79
2019-03-22T10:57:41.189Z,77.59
2019-03-22T10:58:41.048Z,77.89
2019-03-22T10:59:41.012Z,77.48
2019-03-22T11:00:41.003Z,77.38
2019-03-22T11:01:48.589Z,77.59
2019-03-22T11:02:41.992Z,77.69
2019-03-22T11:03:41.014Z,77.89
2019-03-22T11:04:40.974Z,78.34
2019-03-22T11:05:40.948Z,78.34
2019-03-22T11:06:40.936Z,78.58
2019-03-22T11:07:40.941Z,78.34
2019-03-22T11:08:40.914Z,77.93
2019-03-22T11:09:40.906Z,78.85
2019-03-22T11:10:40.897Z,78.44
2019-03-22T11:11:40.876Z,78.34
2019-03-22T11:12:40.905Z,78.03
2019-03-22T11:13:40.891Z,78.00
2019-03-22T11:14:40.841Z,77.93
2019-03-22T11:15:48.168Z,77.93
2019-03-22T11:16:41.835Z,77.38
2019-03-22T11:17:40.840Z,78.03
2019-03-22T11:18:40.812Z,77.42
2019-03-22T11:19:40.793Z,77.79
2019-03-22T11:20:40.782Z,77.28
2019-03-22T11:21:40.775Z,77.62
2019-03-22T11:22:40.792Z,77.38
2019-03-22T11:23:40.753Z,77.59
2019-03-22T11:24:40.731Z,77.14
2019-03-22T11:25:40.733Z,76.63
2019-03-22T11:26:40.715Z,76.46
2019-03-22T11:27:40.738Z,76.43
2019-03-22T11:28:40.719Z,75.92
2019-03-22T11:29:40.694Z,75.41
2019-03-22T11:30:40.663Z,75.31
2019-03-22T11:31:40.658Z,75.71
2019-03-22T11:32:40.645Z,76.22
2019-03-22T11:33:40.661Z,76.12
2019-03-22T11:34:40.628Z,76.56
2019-03-22T11:35:40.610Z,76.32
2019-03-22T11:36:40.610Z,76.43
2019-03-22T11:37:40.589Z,76.12
2019-03-22T11:38:40.609Z,76.02
2019-03-22T11:39:40.570Z,75.92
2019-03-22T11:40:40.571Z,75.61
2019-03-22T11:41:40.561Z,76.12
2019-03-22T11:42:40.540Z,76.53
2019-03-22T11:43:40.557Z,76.22
2019-03-22T11:44:40.531Z,76.32
2019-03-22T11:45:40.510Z,75.71
2019-03-22T11:46:40.505Z,75.27
2019-03-22T11:47:40.486Z,75.10
2019-03-22T11:48:40.525Z,75.51
2019-03-22T11:49:40.476Z,75.20
2019-03-22T11:50:40.475Z,75.20
2019-03-22T11:51:40.441Z,75.16
2019-03-22T11:52:40.433Z,74.86
2019-03-22T11:53:40.445Z,74.86
2019-03-22T11:54:40.407Z,75.07
2019-03-22T11:55:40.405Z,74.96
2019-03-22T11:56:40.383Z,74.05
2019-03-22T11:57:40.383Z,74.35
2019-03-22T11:58:40.382Z,74.66
2019-03-22T11:59:40.348Z,74.76
2019-03-22T12:00:40.345Z,74.86
2019-03-22T12:01:40.344Z,74.66
2019-03-22T12:02:40.319Z,74.35
2019-03-22T12:03:40.326Z,74.52
2019-03-22T12:04:40.317Z,74.01
2019-03-22T12:05:40.820Z,73.71
2019-03-22T12:06:40.278Z,73.36
2019-03-22T12:07:40.266Z,73.47
2019-03-22T12:08:40.287Z,73.16
2019-03-22T12:09:40.247Z,72.96
2019-03-22T12:10:40.238Z,73.36
2019-03-22T12:11:42.037Z,73.16
2019-03-22T12:12:40.213Z,73.16
2019-03-22T12:13:40.229Z,73.06
2019-03-22T12:14:40.189Z,72.75
2019-03-22T12:15:40.186Z,72.89
2019-03-22T12:16:40.167Z,72.99
2019-03-22T12:17:40.181Z,73.60
2019-03-22T12:18:40.163Z,74.11
2019-03-22T12:19:40.132Z,74.11
2019-03-22T12:20:40.129Z,73.40
2019-03-22T12:21:40.129Z,73.81
2019-03-22T12:22:40.103Z,72.96
2019-03-22T12:23:40.130Z,73.06
2019-03-22T12:24:40.116Z,73.02
2019-03-22T12:25:40.071Z,72.72
2019-03-22T12:26:40.061Z,72.01
2019-03-22T12:27:40.060Z,71.91
2019-03-22T12:28:40.039Z,72.11
2019-03-22T12:29:40.042Z,72.41
2019-03-22T12:30:40.015Z,72.92
2019-03-22T12:31:40.005Z,72.41
2019-03-22T12:32:39.996Z,72.11
2019-03-22T12:33:39.981Z,71.50
2019-03-22T12:34:40.009Z,71.30
2019-03-22T12:35:39.966Z,71.91
2019-03-22T12:36:39.952Z,71.70
2019-03-22T12:37:39.935Z,71.39
2019-03-22T12:38:39.934Z,70.65
2019-03-22T12:39:41.811Z,70.89
2019-03-22T12:40:39.909Z,71.09
2019-03-22T12:41:39.892Z,71.50
2019-03-22T12:42:39.886Z,71.39
2019-03-22T12:43:39.877Z,72.01
2019-03-22T12:44:39.879Z,70.89
2019-03-22T12:45:39.846Z,71.60
2019-03-22T12:46:39.849Z,71.06
2019-03-22T12:47:39.825Z,70.86
2019-03-22T12:48:39.819Z,70.51
2019-03-22T12:49:39.829Z,70.51
2019-03-22T12:50:39.819Z,70.01
2019-03-22T12:51:39.819Z,69.90
2019-03-22T12:52:39.773Z,70.18
2019-03-22T12:53:39.788Z,69.36
2019-03-22T12:54:39.779Z,68.41
2019-03-22T12:55:39.740Z,68.92
2019-03-22T12:56:39.725Z,68.41
2019-03-22T12:57:39.725Z,67.60
2019-03-22T12:58:39.764Z,68.32
2019-03-22T12:59:39.723Z,68.41
2019-03-22T13:00:39.693Z,68.62
2019-03-22T13:01:39.709Z,68.35
2019-03-22T13:02:42.438Z,68.55
2019-03-22T13:03:39.667Z,68.96
2019-03-22T13:04:39.665Z,69.13
2019-03-22T13:05:39.634Z,69.06
2019-03-22T13:06:39.625Z,69.36
2019-03-22T13:07:39.619Z,69.16
2019-03-22T13:08:39.598Z,69.16
2019-03-22T13:09:39.613Z,68.65
2019-03-22T13:10:39.573Z,69.06
2019-03-22T13:11:39.576Z,69.06
2019-03-22T13:12:39.561Z,69.16
2019-03-22T13:13:39.550Z,69.16
2019-03-22T13:14:39.580Z,69.36
2019-03-22T13:15:39.536Z,70.01
2019-03-22T13:16:39.520Z,70.55
2019-03-22T13:17:39.511Z,71.06
2019-03-22T13:18:49.601Z,70.99
2019-03-22T13:19:40.498Z,70.75
2019-03-22T13:20:39.481Z,71.50
2019-03-22T13:21:39.455Z,71.56
2019-03-22T13:22:39.455Z,71.06